sensor_id;sensor_type;location;lat;lon;timestamp;P1;durP1;ratioP1;P2;durP2;ratioP2
52650;SDS011;38537;47.226;39.702;2023-03-23T00:01:26;18.75;;;11.38;;
52650;SDS011;38537;47.226;39.702;2023-03-23T00:03:55;17.17;;;11.40;;
52650;SDS011;38537;47.226;39.702;2023-03-23T00:06:24;16.27;;;11.43;;
52650;SDS011;38537;47.226;39.702;2023-03-23T00:08:52;17.77;;;11.50;;
52650;SDS011;38537;47.226;39.702;2023-03-23T00:11:26;17.75;;;12.18;;
52650;SDS011;38537;47.226;39.702;2023-03-23T00:13:57;14.00;;;11.35;;
52650;SDS011;38537;47.226;39.702;2023-03-23T00:16:27;21.00;;;12.52;;
52650;SDS011;38537;47.226;39.702;2023-03-23T00:18:59;18.17;;;11.40;;
52650;SDS011;38537;47.226;39.702;2023-03-23T00:21:36;16.77;;;11.30;;
52650;SDS011;38537;47.226;39.702;2023-03-23T00:24:05;20.10;;;11.73;;
52650;SDS011;38537;47.226;39.702;2023-03-23T00:26:34;15.90;;;11.93;;
52650;SDS011;38537;47.226;39.702;2023-03-23T00:29:03;17.25;;;11.95;;
52650;SDS011;38537;47.226;39.702;2023-03-23T00:31:29;20.63;;;11.52;;
52650;SDS011;38537;47.226;39.702;2023-03-23T00:34:03;15.52;;;12.07;;
52650;SDS011;38537;47.226;39.702;2023-03-23T00:36:31;17.13;;;12.10;;
52650;SDS011;38537;47.226;39.702;2023-03-23T00:39:04;21.48;;;12.38;;
52650;SDS011;38537;47.226;39.702;2023-03-23T00:41:30;19.23;;;12.23;;
52650;SDS011;38537;47.226;39.702;2023-03-23T00:43:59;17.92;;;12.32;;
52650;SDS011;38537;47.226;39.702;2023-03-23T00:46:28;16.75;;;12.40;;
52650;SDS011;38537;47.226;39.702;2023-03-23T00:48:54;16.65;;;12.00;;
52650;SDS011;38537;47.226;39.702;2023-03-23T00:51:23;18.17;;;12.38;;
52650;SDS011;38537;47.226;39.702;2023-03-23T00:53:49;19.88;;;12.27;;
52650;SDS011;38537;47.226;39.702;2023-03-23T00:56:16;21.25;;;12.68;;
52650;SDS011;38537;47.226;39.702;2023-03-23T00:58:42;17.83;;;12.25;;
52650;SDS011;38537;47.226;39.702;2023-03-23T01:01:09;20.52;;;12.57;;
52650;SDS011;38537;47.226;39.702;2023-03-23T01:03:35;18.90;;;13.20;;
52650;SDS011;38537;47.226;39.702;2023-03-23T01:06:09;19.98;;;12.80;;
52650;SDS011;38537;47.226;39.702;2023-03-23T01:08:41;19.92;;;12.30;;
52650;SDS011;38537;47.226;39.702;2023-03-23T01:11:12;17.63;;;12.63;;
52650;SDS011;38537;47.226;39.702;2023-03-23T01:13:41;18.40;;;12.23;;
52650;SDS011;38537;47.226;39.702;2023-03-23T01:16:08;18.17;;;12.35;;
52650;SDS011;38537;47.226;39.702;2023-03-23T01:18:36;21.67;;;12.40;;
52650;SDS011;38537;47.226;39.702;2023-03-23T01:21:06;18.67;;;12.40;;
52650;SDS011;38537;47.226;39.702;2023-03-23T01:23:37;17.60;;;12.77;;
52650;SDS011;38537;47.226;39.702;2023-03-23T01:26:09;17.67;;;11.90;;
52650;SDS011;38537;47.226;39.702;2023-03-23T01:28:36;16.50;;;12.07;;
52650;SDS011;38537;47.226;39.702;2023-03-23T01:31:03;20.27;;;12.02;;
52650;SDS011;38537;47.226;39.702;2023-03-23T01:33:32;17.42;;;12.52;;
52650;SDS011;38537;47.226;39.702;2023-03-23T01:36:04;16.52;;;12.23;;
52650;SDS011;38537;47.226;39.702;2023-03-23T01:38:32;19.10;;;11.80;;
52650;SDS011;38537;47.226;39.702;2023-03-23T01:41:00;20.15;;;12.13;;
52650;SDS011;38537;47.226;39.702;2023-03-23T01:43:27;19.35;;;11.98;;
52650;SDS011;38537;47.226;39.702;2023-03-23T01:45:54;19.92;;;11.60;;
52650;SDS011;38537;47.226;39.702;2023-03-23T01:48:22;15.45;;;11.15;;
52650;SDS011;38537;47.226;39.702;2023-03-23T01:53:45;17.42;;;11.93;;
52650;SDS011;38537;47.226;39.702;2023-03-23T01:56:16;17.33;;;11.82;;
52650;SDS011;38537;47.226;39.702;2023-03-23T01:58:45;19.60;;;11.90;;
52650;SDS011;38537;47.226;39.702;2023-03-23T02:01:13;16.42;;;11.40;;
52650;SDS011;38537;47.226;39.702;2023-03-23T02:03:41;18.17;;;11.80;;
52650;SDS011;38537;47.226;39.702;2023-03-23T02:06:10;17.00;;;11.02;;
52650;SDS011;38537;47.226;39.702;2023-03-23T02:08:53;17.60;;;11.38;;
52650;SDS011;38537;47.226;39.702;2023-03-23T02:11:21;18.77;;;11.93;;
52650;SDS011;38537;47.226;39.702;2023-03-23T02:13:48;26.65;;;12.00;;
52650;SDS011;38537;47.226;39.702;2023-03-23T02:19:20;21.67;;;12.23;;
52650;SDS011;38537;47.226;39.702;2023-03-23T02:30:14;18.83;;;12.18;;
52650;SDS011;38537;47.226;39.702;2023-03-23T02:35:44;18.75;;;11.30;;
52650;SDS011;38537;47.226;39.702;2023-03-23T02:38:23;17.77;;;11.43;;
52650;SDS011;38537;47.226;39.702;2023-03-23T02:40:56;22.25;;;11.40;;
52650;SDS011;38537;47.226;39.702;2023-03-23T02:43:25;21.00;;;11.63;;
52650;SDS011;38537;47.226;39.702;2023-03-23T02:45:54;17.10;;;11.77;;
52650;SDS011;38537;47.226;39.702;2023-03-23T02:48:24;18.73;;;11.18;;
52650;SDS011;38537;47.226;39.702;2023-03-23T02:50:55;17.85;;;11.18;;
52650;SDS011;38537;47.226;39.702;2023-03-23T02:53:24;16.30;;;11.40;;
52650;SDS011;38537;47.226;39.702;2023-03-23T02:55:52;19.08;;;11.30;;
52650;SDS011;38537;47.226;39.702;2023-03-23T02:58:24;19.65;;;12.00;;
52650;SDS011;38537;47.226;39.702;2023-03-23T03:00:51;16.58;;;11.27;;
52650;SDS011;38537;47.226;39.702;2023-03-23T03:03:20;18.38;;;11.55;;
52650;SDS011;38537;47.226;39.702;2023-03-23T03:08:55;20.35;;;11.02;;
52650;SDS011;38537;47.226;39.702;2023-03-23T03:11:46;20.80;;;11.52;;
52650;SDS011;38537;47.226;39.702;2023-03-23T03:14:20;17.98;;;11.52;;
52650;SDS011;38537;47.226;39.702;2023-03-23T03:17:02;18.63;;;11.27;;
52650;SDS011;38537;47.226;39.702;2023-03-23T03:19:39;20.38;;;12.30;;
52650;SDS011;38537;47.226;39.702;2023-03-23T03:22:08;26.00;;;12.00;;
52650;SDS011;38537;47.226;39.702;2023-03-23T03:24:40;18.52;;;11.13;;
52650;SDS011;38537;47.226;39.702;2023-03-23T03:27:14;21.58;;;11.65;;
52650;SDS011;38537;47.226;39.702;2023-03-23T03:29:47;17.80;;;11.35;;
52650;SDS011;38537;47.226;39.702;2023-03-23T03:32:21;20.83;;;11.48;;
52650;SDS011;38537;47.226;39.702;2023-03-23T03:34:50;21.60;;;12.07;;
52650;SDS011;38537;47.226;39.702;2023-03-23T03:37:19;15.40;;;11.50;;
52650;SDS011;38537;47.226;39.702;2023-03-23T03:39:48;20.40;;;11.88;;
52650;SDS011;38537;47.226;39.702;2023-03-23T03:42:14;22.15;;;11.45;;
52650;SDS011;38537;47.226;39.702;2023-03-23T03:44:41;25.33;;;12.68;;
52650;SDS011;38537;47.226;39.702;2023-03-23T03:47:07;22.35;;;12.20;;
52650;SDS011;38537;47.226;39.702;2023-03-23T03:49:33;20.67;;;12.20;;
52650;SDS011;38537;47.226;39.702;2023-03-23T03:51:59;21.55;;;11.75;;
52650;SDS011;38537;47.226;39.702;2023-03-23T03:54:35;20.45;;;11.90;;
52650;SDS011;38537;47.226;39.702;2023-03-23T03:57:02;21.13;;;12.45;;
52650;SDS011;38537;47.226;39.702;2023-03-23T03:59:54;20.13;;;11.93;;
52650;SDS011;38537;47.226;39.702;2023-03-23T04:02:26;23.30;;;12.55;;
52650;SDS011;38537;47.226;39.702;2023-03-23T04:04:54;22.95;;;12.85;;
52650;SDS011;38537;47.226;39.702;2023-03-23T04:07:20;25.73;;;12.20;;
52650;SDS011;38537;47.226;39.702;2023-03-23T04:09:48;23.35;;;12.65;;
52650;SDS011;38537;47.226;39.702;2023-03-23T04:12:19;20.45;;;12.32;;
52650;SDS011;38537;47.226;39.702;2023-03-23T04:15:14;23.93;;;13.23;;
52650;SDS011;38537;47.226;39.702;2023-03-23T04:17:40;28.02;;;13.45;;
52650;SDS011;38537;47.226;39.702;2023-03-23T04:20:08;23.13;;;12.63;;
52650;SDS011;38537;47.226;39.702;2023-03-23T04:22:49;24.70;;;12.50;;
52650;SDS011;38537;47.226;39.702;2023-03-23T04:25:19;25.58;;;12.63;;
52650;SDS011;38537;47.226;39.702;2023-03-23T04:27:51;20.40;;;12.27;;
52650;SDS011;38537;47.226;39.702;2023-03-23T04:30:23;23.42;;;12.38;;
52650;SDS011;38537;47.226;39.702;2023-03-23T04:33:03;22.45;;;13.05;;
52650;SDS011;38537;47.226;39.702;2023-03-23T04:35:29;28.52;;;13.40;;
52650;SDS011;38537;47.226;39.702;2023-03-23T04:38:06;23.67;;;13.30;;
52650;SDS011;38537;47.226;39.702;2023-03-23T04:40:35;23.40;;;13.07;;
52650;SDS011;38537;47.226;39.702;2023-03-23T04:43:15;21.38;;;13.18;;
52650;SDS011;38537;47.226;39.702;2023-03-23T04:45:54;27.30;;;13.10;;
52650;SDS011;38537;47.226;39.702;2023-03-23T04:48:27;24.60;;;13.77;;
52650;SDS011;38537;47.226;39.702;2023-03-23T04:51:03;25.42;;;13.68;;
52650;SDS011;38537;47.226;39.702;2023-03-23T04:53:31;25.48;;;13.50;;
52650;SDS011;38537;47.226;39.702;2023-03-23T04:55:57;31.35;;;13.82;;
52650;SDS011;38537;47.226;39.702;2023-03-23T04:58:25;25.05;;;13.77;;
52650;SDS011;38537;47.226;39.702;2023-03-23T05:01:16;33.22;;;13.75;;
52650;SDS011;38537;47.226;39.702;2023-03-23T05:04:03;30.02;;;13.52;;
52650;SDS011;38537;47.226;39.702;2023-03-23T05:06:32;29.70;;;13.68;;
52650;SDS011;38537;47.226;39.702;2023-03-23T05:09:02;23.45;;;13.15;;
52650;SDS011;38537;47.226;39.702;2023-03-23T05:11:29;22.83;;;13.18;;
52650;SDS011;38537;47.226;39.702;2023-03-23T05:13:56;27.08;;;13.55;;
52650;SDS011;38537;47.226;39.702;2023-03-23T05:16:22;25.17;;;12.82;;
52650;SDS011;38537;47.226;39.702;2023-03-23T05:18:48;22.80;;;12.45;;
52650;SDS011;38537;47.226;39.702;2023-03-23T05:21:16;25.75;;;12.85;;
52650;SDS011;38537;47.226;39.702;2023-03-23T05:23:49;27.38;;;12.75;;
52650;SDS011;38537;47.226;39.702;2023-03-23T05:26:22;24.48;;;12.13;;
52650;SDS011;38537;47.226;39.702;2023-03-23T05:28:55;26.45;;;12.70;;
52650;SDS011;38537;47.226;39.702;2023-03-23T05:31:34;29.02;;;11.85;;
52650;SDS011;38537;47.226;39.702;2023-03-23T05:34:01;25.55;;;12.65;;
52650;SDS011;38537;47.226;39.702;2023-03-23T05:36:38;22.33;;;12.07;;
52650;SDS011;38537;47.226;39.702;2023-03-23T05:39:10;21.23;;;11.73;;
52650;SDS011;38537;47.226;39.702;2023-03-23T05:42:09;22.70;;;11.52;;
52650;SDS011;38537;47.226;39.702;2023-03-23T05:44:45;21.83;;;11.60;;
52650;SDS011;38537;47.226;39.702;2023-03-23T05:47:11;28.55;;;11.85;;
52650;SDS011;38537;47.226;39.702;2023-03-23T05:49:41;26.23;;;11.13;;
52650;SDS011;38537;47.226;39.702;2023-03-23T05:52:12;23.23;;;11.90;;
52650;SDS011;38537;47.226;39.702;2023-03-23T05:54:38;21.17;;;11.20;;
52650;SDS011;38537;47.226;39.702;2023-03-23T05:57:03;23.33;;;11.82;;
52650;SDS011;38537;47.226;39.702;2023-03-23T05:59:46;27.58;;;11.70;;
52650;SDS011;38537;47.226;39.702;2023-03-23T06:02:19;21.92;;;11.43;;
52650;SDS011;38537;47.226;39.702;2023-03-23T06:04:46;24.48;;;11.52;;
52650;SDS011;38537;47.226;39.702;2023-03-23T06:07:25;22.38;;;10.90;;
52650;SDS011;38537;47.226;39.702;2023-03-23T06:10:01;23.77;;;11.40;;
52650;SDS011;38537;47.226;39.702;2023-03-23T06:15:20;24.73;;;10.80;;
52650;SDS011;38537;47.226;39.702;2023-03-23T06:18:16;20.63;;;10.45;;
52650;SDS011;38537;47.226;39.702;2023-03-23T06:21:03;26.48;;;11.20;;
52650;SDS011;38537;47.226;39.702;2023-03-23T06:23:45;19.85;;;9.68;;
52650;SDS011;38537;47.226;39.702;2023-03-23T06:26:15;19.35;;;9.73;;
52650;SDS011;38537;47.226;39.702;2023-03-23T06:28:49;23.23;;;10.27;;
52650;SDS011;38537;47.226;39.702;2023-03-23T06:31:16;29.13;;;11.45;;
52650;SDS011;38537;47.226;39.702;2023-03-23T06:33:43;20.00;;;11.45;;
52650;SDS011;38537;47.226;39.702;2023-03-23T06:36:35;27.30;;;10.73;;
52650;SDS011;38537;47.226;39.702;2023-03-23T06:41:53;25.30;;;11.32;;
52650;SDS011;38537;47.226;39.702;2023-03-23T06:44:20;21.95;;;11.63;;
52650;SDS011;38537;47.226;39.702;2023-03-23T06:46:46;25.30;;;11.38;;
52650;SDS011;38537;47.226;39.702;2023-03-23T06:49:29;26.25;;;11.60;;
52650;SDS011;38537;47.226;39.702;2023-03-23T06:52:08;23.20;;;11.15;;
52650;SDS011;38537;47.226;39.702;2023-03-23T06:54:34;32.63;;;11.82;;
52650;SDS011;38537;47.226;39.702;2023-03-23T06:57:02;24.25;;;11.65;;
52650;SDS011;38537;47.226;39.702;2023-03-23T06:59:28;25.35;;;12.05;;
52650;SDS011;38537;47.226;39.702;2023-03-23T07:01:54;21.33;;;11.00;;
52650;SDS011;38537;47.226;39.702;2023-03-23T07:04:20;25.67;;;13.73;;
52650;SDS011;38537;47.226;39.702;2023-03-23T07:07:16;29.67;;;13.35;;
52650;SDS011;38537;47.226;39.702;2023-03-23T07:10:00;23.08;;;11.38;;
52650;SDS011;38537;47.226;39.702;2023-03-23T07:12:29;21.60;;;11.15;;
52650;SDS011;38537;47.226;39.702;2023-03-23T07:14:55;16.23;;;11.20;;
52650;SDS011;38537;47.226;39.702;2023-03-23T07:17:21;26.50;;;11.35;;
52650;SDS011;38537;47.226;39.702;2023-03-23T07:20:07;25.67;;;12.48;;
52650;SDS011;38537;47.226;39.702;2023-03-23T07:22:33;26.60;;;11.63;;
52650;SDS011;38537;47.226;39.702;2023-03-23T07:25:09;24.88;;;10.60;;
52650;SDS011;38537;47.226;39.702;2023-03-23T07:28:05;25.55;;;11.02;;
52650;SDS011;38537;47.226;39.702;2023-03-23T07:30:32;23.55;;;10.80;;
52650;SDS011;38537;47.226;39.702;2023-03-23T07:32:59;24.70;;;10.60;;
52650;SDS011;38537;47.226;39.702;2023-03-23T07:35:25;23.67;;;10.98;;
52650;SDS011;38537;47.226;39.702;2023-03-23T07:38:01;22.42;;;11.10;;
52650;SDS011;38537;47.226;39.702;2023-03-23T07:40:30;19.67;;;10.00;;
52650;SDS011;38537;47.226;39.702;2023-03-23T07:43:03;25.77;;;10.27;;
52650;SDS011;38537;47.226;39.702;2023-03-23T07:45:53;20.15;;;9.70;;
52650;SDS011;38537;47.226;39.702;2023-03-23T07:48:22;22.98;;;10.85;;
52650;SDS011;38537;47.226;39.702;2023-03-23T07:50:50;22.60;;;10.70;;
52650;SDS011;38537;47.226;39.702;2023-03-23T07:53:17;26.23;;;10.50;;
52650;SDS011;38537;47.226;39.702;2023-03-23T07:55:51;20.38;;;10.57;;
52650;SDS011;38537;47.226;39.702;2023-03-23T07:58:41;18.55;;;9.70;;
52650;SDS011;38537;47.226;39.702;2023-03-23T08:01:07;20.42;;;9.98;;
52650;SDS011;38537;47.226;39.702;2023-03-23T08:03:36;32.03;;;10.77;;
52650;SDS011;38537;47.226;39.702;2023-03-23T08:06:20;22.23;;;10.27;;
52650;SDS011;38537;47.226;39.702;2023-03-23T08:08:58;21.38;;;10.48;;
52650;SDS011;38537;47.226;39.702;2023-03-23T08:11:45;23.17;;;10.63;;
52650;SDS011;38537;47.226;39.702;2023-03-23T08:14:32;23.27;;;10.63;;
52650;SDS011;38537;47.226;39.702;2023-03-23T08:17:11;24.48;;;10.73;;
52650;SDS011;38537;47.226;39.702;2023-03-23T08:19:57;23.77;;;10.38;;
52650;SDS011;38537;47.226;39.702;2023-03-23T08:22:44;20.55;;;9.85;;
52650;SDS011;38537;47.226;39.702;2023-03-23T08:25:35;20.17;;;9.65;;
52650;SDS011;38537;47.226;39.702;2023-03-23T08:28:11;15.30;;;8.40;;
52650;SDS011;38537;47.226;39.702;2023-03-23T08:31:00;20.48;;;9.00;;
52650;SDS011;38537;47.226;39.702;2023-03-23T08:33:42;17.77;;;8.65;;
52650;SDS011;38537;47.226;39.702;2023-03-23T08:36:35;22.25;;;8.90;;
52650;SDS011;38537;47.226;39.702;2023-03-23T08:39:21;16.60;;;7.88;;
52650;SDS011;38537;47.226;39.702;2023-03-23T08:42:08;21.67;;;8.38;;
52650;SDS011;38537;47.226;39.702;2023-03-23T08:44:55;14.68;;;8.07;;
52650;SDS011;38537;47.226;39.702;2023-03-23T08:47:40;18.02;;;8.57;;
52650;SDS011;38537;47.226;39.702;2023-03-23T08:50:32;15.18;;;8.23;;
52650;SDS011;38537;47.226;39.702;2023-03-23T08:53:11;18.50;;;8.23;;
52650;SDS011;38537;47.226;39.702;2023-03-23T08:55:55;15.70;;;8.27;;
52650;SDS011;38537;47.226;39.702;2023-03-23T08:58:48;15.55;;;7.85;;
52650;SDS011;38537;47.226;39.702;2023-03-23T09:01:52;17.35;;;8.55;;
52650;SDS011;38537;47.226;39.702;2023-03-23T09:04:22;19.33;;;8.00;;
52650;SDS011;38537;47.226;39.702;2023-03-23T09:06:48;18.00;;;8.20;;
52650;SDS011;38537;47.226;39.702;2023-03-23T09:09:14;14.82;;;7.78;;
52650;SDS011;38537;47.226;39.702;2023-03-23T09:11:40;17.65;;;8.10;;
52650;SDS011;38537;47.226;39.702;2023-03-23T09:14:06;15.77;;;8.05;;
52650;SDS011;38537;47.226;39.702;2023-03-23T09:16:33;15.88;;;8.18;;
52650;SDS011;38537;47.226;39.702;2023-03-23T09:19:00;15.00;;;7.75;;
52650;SDS011;38537;47.226;39.702;2023-03-23T09:21:27;14.35;;;7.57;;
52650;SDS011;38537;47.226;39.702;2023-03-23T09:23:55;18.17;;;8.32;;
52650;SDS011;38537;47.226;39.702;2023-03-23T09:26:25;19.85;;;8.48;;
52650;SDS011;38537;47.226;39.702;2023-03-23T09:28:53;16.38;;;8.05;;
52650;SDS011;38537;47.226;39.702;2023-03-23T09:31:22;15.55;;;8.23;;
52650;SDS011;38537;47.226;39.702;2023-03-23T09:33:52;16.48;;;7.85;;
52650;SDS011;38537;47.226;39.702;2023-03-23T09:36:21;16.70;;;8.20;;
52650;SDS011;38537;47.226;39.702;2023-03-23T09:38:48;27.40;;;8.55;;
52650;SDS011;38537;47.226;39.702;2023-03-23T09:49:12;16.77;;;8.18;;
52650;SDS011;38537;47.226;39.702;2023-03-23T09:54:40;15.50;;;8.23;;
52650;SDS011;38537;47.226;39.702;2023-03-23T10:00:42;18.05;;;8.32;;
52650;SDS011;38537;47.226;39.702;2023-03-23T10:03:20;15.50;;;8.02;;
52650;SDS011;38537;47.226;39.702;2023-03-23T10:05:51;24.30;;;8.18;;
52650;SDS011;38537;47.226;39.702;2023-03-23T10:08:20;15.27;;;7.43;;
52650;SDS011;38537;47.226;39.702;2023-03-23T10:10:52;11.25;;;6.95;;
52650;SDS011;38537;47.226;39.702;2023-03-23T10:15:52;12.10;;;7.60;;
52650;SDS011;38537;47.226;39.702;2023-03-23T10:18:29;13.23;;;7.20;;
52650;SDS011;38537;47.226;39.702;2023-03-23T10:21:00;15.57;;;7.72;;
52650;SDS011;38537;47.226;39.702;2023-03-23T10:29:21;17.95;;;7.45;;
52650;SDS011;38537;47.226;39.702;2023-03-23T10:37:36;14.73;;;7.05;;
52650;SDS011;38537;47.226;39.702;2023-03-23T10:40:05;15.77;;;7.40;;
52650;SDS011;38537;47.226;39.702;2023-03-23T10:42:40;11.68;;;7.07;;
52650;SDS011;38537;47.226;39.702;2023-03-23T10:45:18;13.75;;;7.60;;
52650;SDS011;38537;47.226;39.702;2023-03-23T10:47:53;12.33;;;7.07;;
52650;SDS011;38537;47.226;39.702;2023-03-23T10:50:29;13.82;;;7.72;;
52650;SDS011;38537;47.226;39.702;2023-03-23T10:52:58;13.50;;;7.97;;
52650;SDS011;38537;47.226;39.702;2023-03-23T10:55:37;17.05;;;8.50;;
52650;SDS011;38537;47.226;39.702;2023-03-23T10:58:06;13.68;;;8.52;;
52650;SDS011;38537;47.226;39.702;2023-03-23T11:00:40;14.70;;;8.88;;
52650;SDS011;38537;47.226;39.702;2023-03-23T11:06:23;17.40;;;8.07;;
52650;SDS011;38537;47.226;39.702;2023-03-23T11:08:35;14.27;;;6.65;;
52650;SDS011;38537;47.226;39.702;2023-03-23T11:11:21;18.35;;;8.65;;
52650;SDS011;38537;47.226;39.702;2023-03-23T11:13:58;14.27;;;8.65;;
52650;SDS011;38537;47.226;39.702;2023-03-23T11:16:42;13.27;;;7.47;;
52650;SDS011;38537;47.226;39.702;2023-03-23T11:19:14;20.75;;;9.73;;
52650;SDS011;38537;47.226;39.702;2023-03-23T11:21:47;12.52;;;8.80;;
52650;SDS011;38537;47.226;39.702;2023-03-23T11:24:16;12.48;;;7.93;;
52650;SDS011;38537;47.226;39.702;2023-03-23T11:26:43;16.35;;;8.32;;
52650;SDS011;38537;47.226;39.702;2023-03-23T11:29:15;17.30;;;8.27;;
52650;SDS011;38537;47.226;39.702;2023-03-23T11:31:45;13.93;;;8.43;;
52650;SDS011;38537;47.226;39.702;2023-03-23T11:34:16;13.00;;;8.07;;
52650;SDS011;38537;47.226;39.702;2023-03-23T11:36:53;11.32;;;6.90;;
52650;SDS011;38537;47.226;39.702;2023-03-23T11:39:25;13.50;;;7.50;;
52650;SDS011;38537;47.226;39.702;2023-03-23T11:41:59;11.38;;;8.13;;
52650;SDS011;38537;47.226;39.702;2023-03-23T11:44:33;11.65;;;8.00;;
52650;SDS011;38537;47.226;39.702;2023-03-23T11:50:01;14.00;;;8.02;;
52650;SDS011;38537;47.226;39.702;2023-03-23T11:55:36;12.13;;;8.27;;
52650;SDS011;38537;47.226;39.702;2023-03-23T11:58:19;10.82;;;7.10;;
52650;SDS011;38537;47.226;39.702;2023-03-23T12:00:50;13.50;;;8.15;;
52650;SDS011;38537;47.226;39.702;2023-03-23T12:06:16;14.25;;;8.50;;
52650;SDS011;38537;47.226;39.702;2023-03-23T12:11:58;14.30;;;8.55;;
52650;SDS011;38537;47.226;39.702;2023-03-23T12:20:03;14.77;;;8.77;;
52650;SDS011;38537;47.226;39.702;2023-03-23T12:25:48;12.48;;;7.30;;
52650;SDS011;38537;47.226;39.702;2023-03-23T12:42:52;11.43;;;7.40;;
52650;SDS011;38537;47.226;39.702;2023-03-23T12:48:39;9.88;;;6.82;;
52650;SDS011;38537;47.226;39.702;2023-03-23T12:51:12;13.23;;;7.70;;
52650;SDS011;38537;47.226;39.702;2023-03-23T12:54:01;15.52;;;8.55;;
52650;SDS011;38537;47.226;39.702;2023-03-23T12:56:34;12.60;;;7.30;;
52650;SDS011;38537;47.226;39.702;2023-03-23T13:04:42;15.13;;;8.52;;
52650;SDS011;38537;47.226;39.702;2023-03-23T13:07:14;11.30;;;8.25;;
52650;SDS011;38537;47.226;39.702;2023-03-23T13:12:23;13.77;;;8.50;;
52650;SDS011;38537;47.226;39.702;2023-03-23T13:23:25;14.63;;;8.38;;
52650;SDS011;38537;47.226;39.702;2023-03-23T13:26:06;14.13;;;8.10;;
52650;SDS011;38537;47.226;39.702;2023-03-23T13:31:32;16.75;;;8.50;;
52650;SDS011;38537;47.226;39.702;2023-03-23T13:36:58;14.43;;;8.30;;
52650;SDS011;38537;47.226;39.702;2023-03-23T13:39:29;12.50;;;7.68;;
52650;SDS011;38537;47.226;39.702;2023-03-23T13:44:54;11.60;;;7.32;;
52650;SDS011;38537;47.226;39.702;2023-03-23T13:47:39;13.50;;;6.95;;
52650;SDS011;38537;47.226;39.702;2023-03-23T13:57:57;12.45;;;7.18;;
52650;SDS011;38537;47.226;39.702;2023-03-23T14:00:37;12.77;;;7.60;;
52650;SDS011;38537;47.226;39.702;2023-03-23T14:03:14;11.98;;;7.63;;
52650;SDS011;38537;47.226;39.702;2023-03-23T14:10:56;11.35;;;7.53;;
52650;SDS011;38537;47.226;39.702;2023-03-23T14:13:32;15.35;;;7.70;;
52650;SDS011;38537;47.226;39.702;2023-03-23T14:16:16;15.93;;;7.40;;
52650;SDS011;38537;47.226;39.702;2023-03-23T14:21:36;13.95;;;7.47;;
52650;SDS011;38537;47.226;39.702;2023-03-23T14:24:11;17.50;;;7.97;;
52650;SDS011;38537;47.226;39.702;2023-03-23T14:26:41;19.83;;;7.80;;
52650;SDS011;38537;47.226;39.702;2023-03-23T14:29:09;19.73;;;8.63;;
52650;SDS011;38537;47.226;39.702;2023-03-23T14:31:38;14.18;;;7.65;;
52650;SDS011;38537;47.226;39.702;2023-03-23T14:34:15;21.70;;;8.82;;
52650;SDS011;38537;47.226;39.702;2023-03-23T14:36:47;17.33;;;8.05;;
52650;SDS011;38537;47.226;39.702;2023-03-23T14:39:21;19.33;;;8.50;;
52650;SDS011;38537;47.226;39.702;2023-03-23T14:41:50;13.40;;;7.70;;
52650;SDS011;38537;47.226;39.702;2023-03-23T14:44:28;21.17;;;9.20;;
52650;SDS011;38537;47.226;39.702;2023-03-23T14:46:57;20.25;;;8.80;;
52650;SDS011;38537;47.226;39.702;2023-03-23T14:49:31;17.58;;;8.40;;
52650;SDS011;38537;47.226;39.702;2023-03-23T14:52:11;18.92;;;7.85;;
52650;SDS011;38537;47.226;39.702;2023-03-23T14:54:39;15.38;;;7.85;;
52650;SDS011;38537;47.226;39.702;2023-03-23T14:57:16;16.45;;;8.52;;
52650;SDS011;38537;47.226;39.702;2023-03-23T14:59:52;19.58;;;8.13;;
52650;SDS011;38537;47.226;39.702;2023-03-23T15:05:00;15.27;;;7.88;;
52650;SDS011;38537;47.226;39.702;2023-03-23T15:07:39;19.42;;;9.10;;
52650;SDS011;38537;47.226;39.702;2023-03-23T15:10:08;16.75;;;8.25;;
52650;SDS011;38537;47.226;39.702;2023-03-23T15:12:39;13.60;;;7.68;;
52650;SDS011;38537;47.226;39.702;2023-03-23T15:15:14;15.30;;;7.80;;
52650;SDS011;38537;47.226;39.702;2023-03-23T15:17:46;17.63;;;7.78;;
52650;SDS011;38537;47.226;39.702;2023-03-23T15:23:15;15.98;;;7.43;;
52650;SDS011;38537;47.226;39.702;2023-03-23T15:25:53;17.75;;;8.43;;
52650;SDS011;38537;47.226;39.702;2023-03-23T15:28:29;17.00;;;8.77;;
52650;SDS011;38537;47.226;39.702;2023-03-23T15:30:59;17.05;;;7.97;;
52650;SDS011;38537;47.226;39.702;2023-03-23T15:33:35;17.05;;;7.75;;
52650;SDS011;38537;47.226;39.702;2023-03-23T15:36:09;13.25;;;7.63;;
52650;SDS011;38537;47.226;39.702;2023-03-23T15:38:45;20.73;;;8.02;;
52650;SDS011;38537;47.226;39.702;2023-03-23T15:41:47;19.05;;;8.07;;
52650;SDS011;38537;47.226;39.702;2023-03-23T15:44:22;20.42;;;8.20;;
52650;SDS011;38537;47.226;39.702;2023-03-23T15:46:53;16.38;;;8.25;;
52650;SDS011;38537;47.226;39.702;2023-03-23T15:49:30;17.38;;;8.98;;
52650;SDS011;38537;47.226;39.702;2023-03-23T15:51:57;16.67;;;8.13;;
52650;SDS011;38537;47.226;39.702;2023-03-23T15:54:23;22.60;;;8.88;;
52650;SDS011;38537;47.226;39.702;2023-03-23T15:56:49;16.83;;;9.27;;
52650;SDS011;38537;47.226;39.702;2023-03-23T15:59:15;23.20;;;9.93;;
52650;SDS011;38537;47.226;39.702;2023-03-23T16:01:42;22.27;;;10.20;;
52650;SDS011;38537;47.226;39.702;2023-03-23T16:04:12;22.63;;;10.23;;
52650;SDS011;38537;47.226;39.702;2023-03-23T16:06:43;24.25;;;10.43;;
52650;SDS011;38537;47.226;39.702;2023-03-23T16:09:16;26.67;;;11.05;;
52650;SDS011;38537;47.226;39.702;2023-03-23T16:11:47;26.20;;;11.18;;
52650;SDS011;38537;47.226;39.702;2023-03-23T16:14:14;28.60;;;11.38;;
52650;SDS011;38537;47.226;39.702;2023-03-23T16:16:43;21.15;;;10.52;;
52650;SDS011;38537;47.226;39.702;2023-03-23T16:19:16;20.02;;;10.27;;
52650;SDS011;38537;47.226;39.702;2023-03-23T16:21:47;21.10;;;11.00;;
52650;SDS011;38537;47.226;39.702;2023-03-23T16:24:14;29.65;;;11.65;;
52650;SDS011;38537;47.226;39.702;2023-03-23T16:26:41;20.80;;;10.18;;
52650;SDS011;38537;47.226;39.702;2023-03-23T16:29:10;22.38;;;10.50;;
52650;SDS011;38537;47.226;39.702;2023-03-23T16:31:49;21.98;;;10.55;;
52650;SDS011;38537;47.226;39.702;2023-03-23T16:34:16;20.25;;;11.00;;
52650;SDS011;38537;47.226;39.702;2023-03-23T16:36:44;23.42;;;11.07;;
52650;SDS011;38537;47.226;39.702;2023-03-23T16:39:12;21.83;;;10.60;;
52650;SDS011;38537;47.226;39.702;2023-03-23T16:41:39;24.35;;;10.60;;
52650;SDS011;38537;47.226;39.702;2023-03-23T16:44:07;26.38;;;11.00;;
52650;SDS011;38537;47.226;39.702;2023-03-23T16:46:34;27.45;;;10.73;;
52650;SDS011;38537;47.226;39.702;2023-03-23T16:49:02;24.83;;;9.88;;
52650;SDS011;38537;47.226;39.702;2023-03-23T16:51:29;24.77;;;10.43;;
52650;SDS011;38537;47.226;39.702;2023-03-23T16:53:59;22.08;;;9.85;;
52650;SDS011;38537;47.226;39.702;2023-03-23T16:56:26;25.67;;;9.93;;
52650;SDS011;38537;47.226;39.702;2023-03-23T16:58:54;26.75;;;10.38;;
52650;SDS011;38537;47.226;39.702;2023-03-23T17:01:21;23.50;;;10.18;;
52650;SDS011;38537;47.226;39.702;2023-03-23T17:03:48;24.55;;;10.63;;
52650;SDS011;38537;47.226;39.702;2023-03-23T17:06:19;22.23;;;10.75;;
52650;SDS011;38537;47.226;39.702;2023-03-23T17:08:46;20.25;;;10.25;;